sensor_id;sensor_type;location;lat;lon;timestamp;temperature;humidity
15969;DHT22;8085;53.472;9.794;2023-02-15T00:02:02;1.50;99.90
15969;DHT22;8085;53.472;9.794;2023-02-15T00:04:29;1.40;99.90
15969;DHT22;8085;53.472;9.794;2023-02-15T00:07:10;1.30;99.90
15969;DHT22;8085;53.472;9.794;2023-02-15T00:09:36;1.20;99.90
15969;DHT22;8085;53.472;9.794;2023-02-15T00:12:03;1.10;99.90
15969;DHT22;8085;53.472;9.794;2023-02-15T00:14:30;1.10;99.90
15969;DHT22;8085;53.472;9.794;2023-02-15T00:16:57;1.00;99.90
15969;DHT22;8085;53.472;9.794;2023-02-15T00:19:26;1.00;99.90
15969;DHT22;8085;53.472;9.794;2023-02-15T00:21:53;1.00;99.90
15969;DHT22;8085;53.472;9.794;2023-02-15T00:24:21;1.00;99.90
15969;DHT22;8085;53.472;9.794;2023-02-15T00:26:48;1.00;99.90
15969;DHT22;8085;53.472;9.794;2023-02-15T00:29:16;1.00;99.90
15969;DHT22;8085;53.472;9.794;2023-02-15T00:31:43;1.00;99.90
15969;DHT22;8085;53.472;9.794;2023-02-15T00:34:12;0.90;99.90
15969;DHT22;8085;53.472;9.794;2023-02-15T00:36:41;0.90;99.90
15969;DHT22;8085;53.472;9.794;2023-02-15T00:39:08;0.90;99.90
15969;DHT22;8085;53.472;9.794;2023-02-15T00:41:35;0.90;99.90
15969;DHT22;8085;53.472;9.794;2023-02-15T00:44:02;0.90;99.90
15969;DHT22;8085;53.472;9.794;2023-02-15T00:46:29;0.90;99.90
15969;DHT22;8085;53.472;9.794;2023-02-15T00:48:56;0.90;99.90
15969;DHT22;8085;53.472;9.794;2023-02-15T00:51:24;0.90;99.90
15969;DHT22;8085;53.472;9.794;2023-02-15T00:53:52;0.90;99.90
15969;DHT22;8085;53.472;9.794;2023-02-15T00:56:19;0.90;99.90
15969;DHT22;8085;53.472;9.794;2023-02-15T00:58:46;0.90;99.90
15969;DHT22;8085;53.472;9.794;2023-02-15T01:01:15;0.90;99.90
15969;DHT22;8085;53.472;9.794;2023-02-15T01:03:42;0.90;99.90
15969;DHT22;8085;53.472;9.794;2023-02-15T01:06:09;0.90;99.90
15969;DHT22;8085;53.472;9.794;2023-02-15T01:08:37;1.00;99.90
15969;DHT22;8085;53.472;9.794;2023-02-15T01:11:06;1.00;99.90
15969;DHT22;8085;53.472;9.794;2023-02-15T01:13:34;1.10;99.90
15969;DHT22;8085;53.472;9.794;2023-02-15T01:16:01;1.10;99.90
15969;DHT22;8085;53.472;9.794;2023-02-15T01:18:29;1.10;99.90
15969;DHT22;8085;53.472;9.794;2023-02-15T01:20:56;1.10;99.90
15969;DHT22;8085;53.472;9.794;2023-02-15T01:23:23;1.10;99.90
15969;DHT22;8085;53.472;9.794;2023-02-15T01:25:50;1.00;99.90
15969;DHT22;8085;53.472;9.794;2023-02-15T01:28:18;1.00;99.90
15969;DHT22;8085;53.472;9.794;2023-02-15T01:30:45;1.10;99.90
15969;DHT22;8085;53.472;9.794;2023-02-15T01:33:11;1.10;99.90
15969;DHT22;8085;53.472;9.794;2023-02-15T01:35:43;1.10;99.90
15969;DHT22;8085;53.472;9.794;2023-02-15T01:38:11;1.10;99.90
15969;DHT22;8085;53.472;9.794;2023-02-15T01:40:37;1.00;99.90
15969;DHT22;8085;53.472;9.794;2023-02-15T01:43:09;1.00;99.90
15969;DHT22;8085;53.472;9.794;2023-02-15T01:45:38;1.00;99.90
15969;DHT22;8085;53.472;9.794;2023-02-15T01:48:19;1.00;99.90
15969;DHT22;8085;53.472;9.794;2023-02-15T01:50:50;1.00;99.90
15969;DHT22;8085;53.472;9.794;2023-02-15T01:53:22;1.00;99.90
15969;DHT22;8085;53.472;9.794;2023-02-15T01:55:53;1.00;99.90
15969;DHT22;8085;53.472;9.794;2023-02-15T01:58:23;1.00;99.90
15969;DHT22;8085;53.472;9.794;2023-02-15T02:00:54;1.00;99.90
15969;DHT22;8085;53.472;9.794;2023-02-15T02:03:29;1.00;99.90
15969;DHT22;8085;53.472;9.794;2023-02-15T02:05:58;1.10;99.90
15969;DHT22;8085;53.472;9.794;2023-02-15T02:08:25;1.00;99.90
15969;DHT22;8085;53.472;9.794;2023-02-15T02:10:52;1.00;99.90
15969;DHT22;8085;53.472;9.794;2023-02-15T02:13:19;1.10;99.90
15969;DHT22;8085;53.472;9.794;2023-02-15T02:15:49;1.10;99.90
15969;DHT22;8085;53.472;9.794;2023-02-15T02:18:33;1.10;99.90
15969;DHT22;8085;53.472;9.794;2023-02-15T02:21:37;1.10;99.90
15969;DHT22;8085;53.472;9.794;2023-02-15T02:24:40;1.10;99.90
15969;DHT22;8085;53.472;9.794;2023-02-15T02:27:19;1.10;99.90
15969;DHT22;8085;53.472;9.794;2023-02-15T02:36:09;0.90;99.90
15969;DHT22;8085;53.472;9.794;2023-02-15T02:38:48;0.80;99.90
15969;DHT22;8085;53.472;9.794;2023-02-15T02:41:24;0.80;99.90
15969;DHT22;8085;53.472;9.794;2023-02-15T02:43:59;0.80;99.90
15969;DHT22;8085;53.472;9.794;2023-02-15T02:46:33;0.80;99.90
15969;DHT22;8085;53.472;9.794;2023-02-15T02:49:01;0.70;99.90
15969;DHT22;8085;53.472;9.794;2023-02-15T02:51:30;0.70;99.90
15969;DHT22;8085;53.472;9.794;2023-02-15T02:54:00;0.60;99.90
15969;DHT22;8085;53.472;9.794;2023-02-15T02:56:29;0.60;99.90
15969;DHT22;8085;53.472;9.794;2023-02-15T02:59:01;0.60;99.90
15969;DHT22;8085;53.472;9.794;2023-02-15T03:01:32;0.60;99.90
15969;DHT22;8085;53.472;9.794;2023-02-15T03:04:01;0.60;99.90
15969;DHT22;8085;53.472;9.794;2023-02-15T03:06:33;0.70;99.90
15969;DHT22;8085;53.472;9.794;2023-02-15T03:09:08;0.60;99.90
15969;DHT22;8085;53.472;9.794;2023-02-15T03:11:40;0.60;99.90
15969;DHT22;8085;53.472;9.794;2023-02-15T03:14:08;0.60;99.90
15969;DHT22;8085;53.472;9.794;2023-02-15T03:16:35;0.70;99.90
15969;DHT22;8085;53.472;9.794;2023-02-15T03:19:06;0.60;99.90
15969;DHT22;8085;53.472;9.794;2023-02-15T03:21:40;0.60;99.90
15969;DHT22;8085;53.472;9.794;2023-02-15T03:24:10;0.60;99.90
15969;DHT22;8085;53.472;9.794;2023-02-15T03:26:39;0.50;99.90
15969;DHT22;8085;53.472;9.794;2023-02-15T03:29:08;0.50;99.90
15969;DHT22;8085;53.472;9.794;2023-02-15T03:31:38;0.30;99.90
15969;DHT22;8085;53.472;9.794;2023-02-15T03:34:10;0.30;99.90
15969;DHT22;8085;53.472;9.794;2023-02-15T03:36:43;0.40;99.90
15969;DHT22;8085;53.472;9.794;2023-02-15T03:39:17;0.40;99.90
15969;DHT22;8085;53.472;9.794;2023-02-15T03:41:52;0.40;99.90
15969;DHT22;8085;53.472;9.794;2023-02-15T03:44:25;0.50;99.90
15969;DHT22;8085;53.472;9.794;2023-02-15T03:46:58;0.50;99.90
15969;DHT22;8085;53.472;9.794;2023-02-15T03:49:30;0.60;99.90
15969;DHT22;8085;53.472;9.794;2023-02-15T03:52:03;0.60;99.90
15969;DHT22;8085;53.472;9.794;2023-02-15T03:54:32;0.60;99.90
15969;DHT22;8085;53.472;9.794;2023-02-15T03:57:17;0.70;99.90
15969;DHT22;8085;53.472;9.794;2023-02-15T04:00:15;0.70;99.90
15969;DHT22;8085;53.472;9.794;2023-02-15T04:03:20;0.60;99.90
15969;DHT22;8085;53.472;9.794;2023-02-15T04:05:49;0.60;99.90
15969;DHT22;8085;53.472;9.794;2023-02-15T04:08:17;0.60;99.90
15969;DHT22;8085;53.472;9.794;2023-02-15T04:10:44;0.40;99.90
15969;DHT22;8085;53.472;9.794;2023-02-15T04:13:21;0.40;99.90
15969;DHT22;8085;53.472;9.794;2023-02-15T04:15:48;0.20;99.90
15969;DHT22;8085;53.472;9.794;2023-02-15T04:18:30;0.10;99.90
15969;DHT22;8085;53.472;9.794;2023-02-15T04:21:15;0.10;99.90
15969;DHT22;8085;53.472;9.794;2023-02-15T04:24:00;0.10;99.90
15969;DHT22;8085;53.472;9.794;2023-02-15T04:26:45;0.10;99.90
15969;DHT22;8085;53.472;9.794;2023-02-15T04:29:13;0.20;99.90
15969;DHT22;8085;53.472;9.794;2023-02-15T04:31:40;0.10;99.90
15969;DHT22;8085;53.472;9.794;2023-02-15T04:34:08;0.10;99.90
15969;DHT22;8085;53.472;9.794;2023-02-15T04:36:35;0.10;99.90
15969;DHT22;8085;53.472;9.794;2023-02-15T04:39:04;0.10;99.90
15969;DHT22;8085;53.472;9.794;2023-02-15T04:41:31;0.10;99.90
15969;DHT22;8085;53.472;9.794;2023-02-15T04:43:58;0.10;99.90
15969;DHT22;8085;53.472;9.794;2023-02-15T04:46:26;0.10;99.90
15969;DHT22;8085;53.472;9.794;2023-02-15T04:48:53;-0.10;99.90
15969;DHT22;8085;53.472;9.794;2023-02-15T04:51:19;-0.10;99.90
15969;DHT22;8085;53.472;9.794;2023-02-15T04:53:46;-0.30;99.90
15969;DHT22;8085;53.472;9.794;2023-02-15T04:56:15;-0.40;99.90
15969;DHT22;8085;53.472;9.794;2023-02-15T04:58:41;-0.40;99.90
15969;DHT22;8085;53.472;9.794;2023-02-15T05:01:08;-0.40;99.90
15969;DHT22;8085;53.472;9.794;2023-02-15T05:03:35;-0.40;99.90
15969;DHT22;8085;53.472;9.794;2023-02-15T05:06:03;-0.40;99.90
15969;DHT22;8085;53.472;9.794;2023-02-15T05:08:30;-0.40;99.90
15969;DHT22;8085;53.472;9.794;2023-02-15T05:10:57;-0.60;99.90
15969;DHT22;8085;53.472;9.794;2023-02-15T05:13:25;-0.60;99.90
15969;DHT22;8085;53.472;9.794;2023-02-15T05:15:53;-0.60;99.90
15969;DHT22;8085;53.472;9.794;2023-02-15T05:18:21;-0.50;99.90
15969;DHT22;8085;53.472;9.794;2023-02-15T05:20:48;-0.60;99.90
15969;DHT22;8085;53.472;9.794;2023-02-15T05:23:15;-0.70;99.90
15969;DHT22;8085;53.472;9.794;2023-02-15T05:25:46;-0.60;99.90
15969;DHT22;8085;53.472;9.794;2023-02-15T05:28:32;-0.60;99.90
15969;DHT22;8085;53.472;9.794;2023-02-15T05:31:03;-0.50;99.90
15969;DHT22;8085;53.472;9.794;2023-02-15T05:33:30;-0.40;99.90
15969;DHT22;8085;53.472;9.794;2023-02-15T05:35:57;-0.40;99.90
15969;DHT22;8085;53.472;9.794;2023-02-15T05:38:24;-0.30;99.90
15969;DHT22;8085;53.472;9.794;2023-02-15T05:40:51;-0.30;99.90
15969;DHT22;8085;53.472;9.794;2023-02-15T05:43:18;-0.20;99.90
15969;DHT22;8085;53.472;9.794;2023-02-15T05:45:47;-0.20;99.90
15969;DHT22;8085;53.472;9.794;2023-02-15T05:48:14;-0.10;99.90
15969;DHT22;8085;53.472;9.794;2023-02-15T05:50:41;-0.10;99.90
15969;DHT22;8085;53.472;9.794;2023-02-15T05:53:08;-0.10;99.90
15969;DHT22;8085;53.472;9.794;2023-02-15T05:55:37;-0.20;99.90
15969;DHT22;8085;53.472;9.794;2023-02-15T05:58:05;-0.20;99.90
15969;DHT22;8085;53.472;9.794;2023-02-15T06:00:32;-0.20;99.90
15969;DHT22;8085;53.472;9.794;2023-02-15T06:03:00;-0.20;99.90
15969;DHT22;8085;53.472;9.794;2023-02-15T06:05:27;-0.30;99.90
15969;DHT22;8085;53.472;9.794;2023-02-15T06:07:53;-0.50;99.90
15969;DHT22;8085;53.472;9.794;2023-02-15T06:10:20;-0.60;99.90
15969;DHT22;8085;53.472;9.794;2023-02-15T06:12:47;-0.70;99.90
15969;DHT22;8085;53.472;9.794;2023-02-15T06:15:14;-0.70;99.90
15969;DHT22;8085;53.472;9.794;2023-02-15T06:17:41;-0.70;99.90
15969;DHT22;8085;53.472;9.794;2023-02-15T06:20:11;-0.70;99.90
15969;DHT22;8085;53.472;9.794;2023-02-15T06:22:37;-0.60;99.90
15969;DHT22;8085;53.472;9.794;2023-02-15T06:25:05;-0.70;99.90
15969;DHT22;8085;53.472;9.794;2023-02-15T06:27:35;-0.60;99.90
15969;DHT22;8085;53.472;9.794;2023-02-15T06:30:02;-0.70;99.90
15969;DHT22;8085;53.472;9.794;2023-02-15T06:32:29;-0.70;99.90
15969;DHT22;8085;53.472;9.794;2023-02-15T06:34:56;-0.70;99.90
15969;DHT22;8085;53.472;9.794;2023-02-15T06:37:24;-0.60;99.90
15969;DHT22;8085;53.472;9.794;2023-02-15T06:39:51;-0.60;99.90
15969;DHT22;8085;53.472;9.794;2023-02-15T06:42:18;-0.60;99.90
15969;DHT22;8085;53.472;9.794;2023-02-15T06:44:45;-0.70;99.90
15969;DHT22;8085;53.472;9.794;2023-02-15T06:47:11;-0.60;99.90
15969;DHT22;8085;53.472;9.794;2023-02-15T06:49:38;-0.60;99.90
15969;DHT22;8085;53.472;9.794;2023-02-15T06:52:05;-0.50;99.90
15969;DHT22;8085;53.472;9.794;2023-02-15T06:54:33;-0.50;99.90
15969;DHT22;8085;53.472;9.794;2023-02-15T06:57:00;-0.40;99.90
15969;DHT22;8085;53.472;9.794;2023-02-15T06:59:27;-0.40;99.90
15969;DHT22;8085;53.472;9.794;2023-02-15T07:01:54;-0.40;99.90
15969;DHT22;8085;53.472;9.794;2023-02-15T07:04:20;-0.30;99.90
15969;DHT22;8085;53.472;9.794;2023-02-15T07:06:47;-0.40;99.90
15969;DHT22;8085;53.472;9.794;2023-02-15T07:09:14;-0.50;99.90
15969;DHT22;8085;53.472;9.794;2023-02-15T07:11:42;-0.50;99.90
15969;DHT22;8085;53.472;9.794;2023-02-15T07:14:27;-0.60;99.90
15969;DHT22;8085;53.472;9.794;2023-02-15T07:16:54;-0.50;99.90
15969;DHT22;8085;53.472;9.794;2023-02-15T07:19:21;-0.50;99.90
15969;DHT22;8085;53.472;9.794;2023-02-15T07:21:47;-0.50;99.90
15969;DHT22;8085;53.472;9.794;2023-02-15T07:24:14;-0.40;99.90
15969;DHT22;8085;53.472;9.794;2023-02-15T07:26:42;-0.40;99.90
15969;DHT22;8085;53.472;9.794;2023-02-15T07:29:09;-0.40;99.90
15969;DHT22;8085;53.472;9.794;2023-02-15T07:31:36;-0.30;99.90
15969;DHT22;8085;53.472;9.794;2023-02-15T07:34:02;-0.30;99.90
15969;DHT22;8085;53.472;9.794;2023-02-15T07:36:29;-0.30;99.90
15969;DHT22;8085;53.472;9.794;2023-02-15T07:38:56;-0.40;99.90
15969;DHT22;8085;53.472;9.794;2023-02-15T07:41:23;-0.40;99.90
15969;DHT22;8085;53.472;9.794;2023-02-15T07:43:51;-0.30;99.90
15969;DHT22;8085;53.472;9.794;2023-02-15T07:46:18;-0.30;99.90
15969;DHT22;8085;53.472;9.794;2023-02-15T07:48:46;-0.30;99.90
15969;DHT22;8085;53.472;9.794;2023-02-15T07:51:13;-0.30;99.90
15969;DHT22;8085;53.472;9.794;2023-02-15T07:53:42;-0.40;99.90
15969;DHT22;8085;53.472;9.794;2023-02-15T07:56:10;-0.40;99.90
15969;DHT22;8085;53.472;9.794;2023-02-15T07:58:37;-0.30;99.90
15969;DHT22;8085;53.472;9.794;2023-02-15T08:01:24;-0.30;99.90
15969;DHT22;8085;53.472;9.794;2023-02-15T08:03:51;-0.30;99.90
15969;DHT22;8085;53.472;9.794;2023-02-15T08:06:19;-0.20;99.90
15969;DHT22;8085;53.472;9.794;2023-02-15T08:08:46;-0.20;99.90
15969;DHT22;8085;53.472;9.794;2023-02-15T08:11:18;-0.10;99.90
15969;DHT22;8085;53.472;9.794;2023-02-15T08:14:03;0.00;99.90
15969;DHT22;8085;53.472;9.794;2023-02-15T08:16:33;0.00;99.90
15969;DHT22;8085;53.472;9.794;2023-02-15T08:19:02;0.00;99.90
15969;DHT22;8085;53.472;9.794;2023-02-15T08:21:30;0.00;99.90
15969;DHT22;8085;53.472;9.794;2023-02-15T08:23:58;0.00;99.90
15969;DHT22;8085;53.472;9.794;2023-02-15T08:26:26;0.00;99.90
15969;DHT22;8085;53.472;9.794;2023-02-15T08:28:53;0.10;99.90
15969;DHT22;8085;53.472;9.794;2023-02-15T08:31:20;0.10;99.90
15969;DHT22;8085;53.472;9.794;2023-02-15T08:33:50;0.20;99.90
15969;DHT22;8085;53.472;9.794;2023-02-15T08:36:19;0.10;99.90
15969;DHT22;8085;53.472;9.794;2023-02-15T08:38:46;0.00;99.90
15969;DHT22;8085;53.472;9.794;2023-02-15T08:41:15;0.00;99.90
15969;DHT22;8085;53.472;9.794;2023-02-15T08:43:43;-0.10;99.90
15969;DHT22;8085;53.472;9.794;2023-02-15T08:46:10;-0.20;99.90
15969;DHT22;8085;53.472;9.794;2023-02-15T08:48:38;-0.10;99.90
15969;DHT22;8085;53.472;9.794;2023-02-15T08:51:08;-0.10;99.90
15969;DHT22;8085;53.472;9.794;2023-02-15T08:53:53;0.00;99.90
15969;DHT22;8085;53.472;9.794;2023-02-15T08:56:35;0.10;99.90
15969;DHT22;8085;53.472;9.794;2023-02-15T08:59:03;0.20;99.90
15969;DHT22;8085;53.472;9.794;2023-02-15T09:01:32;0.20;99.90
15969;DHT22;8085;53.472;9.794;2023-02-15T09:04:01;0.30;99.90
15969;DHT22;8085;53.472;9.794;2023-02-15T09:06:31;0.30;99.90
15969;DHT22;8085;53.472;9.794;2023-02-15T09:08:58;0.30;99.90
15969;DHT22;8085;53.472;9.794;2023-02-15T09:11:26;0.40;99.90
15969;DHT22;8085;53.472;9.794;2023-02-15T09:13:55;0.50;99.90
15969;DHT22;8085;53.472;9.794;2023-02-15T09:16:24;0.50;99.90
15969;DHT22;8085;53.472;9.794;2023-02-15T09:18:52;0.60;99.90
15969;DHT22;8085;53.472;9.794;2023-02-15T09:21:20;0.70;99.90
15969;DHT22;8085;53.472;9.794;2023-02-15T09:23:50;0.80;99.90
15969;DHT22;8085;53.472;9.794;2023-02-15T09:26:19;0.90;99.90
15969;DHT22;8085;53.472;9.794;2023-02-15T09:28:46;1.00;99.90
15969;DHT22;8085;53.472;9.794;2023-02-15T09:31:15;1.10;99.90
15969;DHT22;8085;53.472;9.794;2023-02-15T09:34:00;1.20;99.90
15969;DHT22;8085;53.472;9.794;2023-02-15T09:36:35;1.30;99.90
15969;DHT22;8085;53.472;9.794;2023-02-15T09:39:08;1.40;99.90
15969;DHT22;8085;53.472;9.794;2023-02-15T09:45:21;1.40;99.90
15969;DHT22;8085;53.472;9.794;2023-02-15T09:48:07;1.50;99.90
15969;DHT22;8085;53.472;9.794;2023-02-15T09:50:42;1.60;99.90
15969;DHT22;8085;53.472;9.794;2023-02-15T09:53:29;1.70;99.90
15969;DHT22;8085;53.472;9.794;2023-02-15T09:56:06;1.80;99.90
15969;DHT22;8085;53.472;9.794;2023-02-15T09:58:42;1.90;99.90
15969;DHT22;8085;53.472;9.794;2023-02-15T10:01:17;2.00;99.90
15969;DHT22;8085;53.472;9.794;2023-02-15T10:03:59;2.10;99.90
15969;DHT22;8085;53.472;9.794;2023-02-15T10:06:36;2.30;99.90
15969;DHT22;8085;53.472;9.794;2023-02-15T10:09:25;2.40;99.90
15969;DHT22;8085;53.472;9.794;2023-02-15T10:12:11;2.50;99.90
15969;DHT22;8085;53.472;9.794;2023-02-15T10:17:46;2.80;99.90
15969;DHT22;8085;53.472;9.794;2023-02-15T10:20:25;2.90;99.90
15969;DHT22;8085;53.472;9.794;2023-02-15T10:23:09;3.10;99.90
15969;DHT22;8085;53.472;9.794;2023-02-15T10:25:43;3.20;99.90
15969;DHT22;8085;53.472;9.794;2023-02-15T10:28:18;3.20;99.90
15969;DHT22;8085;53.472;9.794;2023-02-15T10:30:47;3.20;99.90
15969;DHT22;8085;53.472;9.794;2023-02-15T10:33:34;3.40;99.90
15969;DHT22;8085;53.472;9.794;2023-02-15T10:36:14;3.50;99.90
15969;DHT22;8085;53.472;9.794;2023-02-15T10:38:47;3.60;99.90
15969;DHT22;8085;53.472;9.794;2023-02-15T10:41:27;3.60;99.90
15969;DHT22;8085;53.472;9.794;2023-02-15T10:44:20;3.70;99.90
15969;DHT22;8085;53.472;9.794;2023-02-15T10:47:04;3.80;99.90
15969;DHT22;8085;53.472;9.794;2023-02-15T10:49:53;3.80;99.90
15969;DHT22;8085;53.472;9.794;2023-02-15T10:52:32;3.90;99.90
15969;DHT22;8085;53.472;9.794;2023-02-15T10:55:08;4.00;99.90
15969;DHT22;8085;53.472;9.794;2023-02-15T10:57:45;4.20;99.90
15969;DHT22;8085;53.472;9.794;2023-02-15T11:00:20;4.30;99.90
15969;DHT22;8085;53.472;9.794;2023-02-15T11:02:58;4.40;99.90
15969;DHT22;8085;53.472;9.794;2023-02-15T11:05:41;4.60;99.90
15969;DHT22;8085;53.472;9.794;2023-02-15T11:08:10;4.70;99.90
15969;DHT22;8085;53.472;9.794;2023-02-15T11:10:41;4.80;99.90
15969;DHT22;8085;53.472;9.794;2023-02-15T11:13:11;4.90;99.90
15969;DHT22;8085;53.472;9.794;2023-02-15T11:15:43;5.10;99.90
15969;DHT22;8085;53.472;9.794;2023-02-15T11:18:15;5.20;99.90
15969;DHT22;8085;53.472;9.794;2023-02-15T11:20:50;5.40;99.90
15969;DHT22;8085;53.472;9.794;2023-02-15T11:23:20;5.40;99.90
15969;DHT22;8085;53.472;9.794;2023-02-15T11:25:54;5.40;99.90
15969;DHT22;8085;53.472;9.794;2023-02-15T11:28:27;5.60;99.90
15969;DHT22;8085;53.472;9.794;2023-02-15T11:31:00;5.70;99.90
15969;DHT22;8085;53.472;9.794;2023-02-15T11:33:31;5.90;99.90
15969;DHT22;8085;53.472;9.794;2023-02-15T11:36:04;5.90;99.90
15969;DHT22;8085;53.472;9.794;2023-02-15T11:38:33;6.20;99.90
15969;DHT22;8085;53.472;9.794;2023-02-15T11:41:03;6.60;99.90
15969;DHT22;8085;53.472;9.794;2023-02-15T11:43:34;7.10;99.90
15969;DHT22;8085;53.472;9.794;2023-02-15T11:46:05;7.40;99.90
15969;DHT22;8085;53.472;9.794;2023-02-15T11:48:32;7.60;99.90
15969;DHT22;8085;53.472;9.794;2023-02-15T11:51:02;7.90;99.90
15969;DHT22;8085;53.472;9.794;2023-02-15T11:53:32;8.30;95.60
15969;DHT22;8085;53.472;9.794;2023-02-15T11:56:00;8.90;94.20
15969;DHT22;8085;53.472;9.794;2023-02-15T11:58:33;9.10;76.40
15969;DHT22;8085;53.472;9.794;2023-02-15T12:01:09;9.40;85.70
15969;DHT22;8085;53.472;9.794;2023-02-15T12:03:44;9.60;48.20
15969;DHT22;8085;53.472;9.794;2023-02-15T12:06:18;9.50;36.90
15969;DHT22;8085;53.472;9.794;2023-02-15T12:08:52;8.80;17.90
15969;DHT22;8085;53.472;9.794;2023-02-15T12:11:25;8.40;26.50
15969;DHT22;8085;53.472;9.794;2023-02-15T12:13:58;8.30;50.00
15969;DHT22;8085;53.472;9.794;2023-02-15T12:16:28;8.30;41.40
15969;DHT22;8085;53.472;9.794;2023-02-15T12:18:56;8.70;32.40
15969;DHT22;8085;53.472;9.794;2023-02-15T12:21:26;8.90;18.40
15969;DHT22;8085;53.472;9.794;2023-02-15T12:23:56;8.60;25.90
15969;DHT22;8085;53.472;9.794;2023-02-15T12:26:25;9.20;23.60
15969;DHT22;8085;53.472;9.794;2023-02-15T12:28:53;8.90;1.00
15969;DHT22;8085;53.472;9.794;2023-02-15T12:31:26;8.90;18.60
15969;DHT22;8085;53.472;9.794;2023-02-15T12:33:57;9.30;19.30
15969;DHT22;8085;53.472;9.794;2023-02-15T12:36:30;9.30;1.00
15969;DHT22;8085;53.472;9.794;2023-02-15T12:39:19;9.30;2.80
15969;DHT22;8085;53.472;9.794;2023-02-15T12:41:57;9.60;3.60
15969;DHT22;8085;53.472;9.794;2023-02-15T12:44:25;9.90;1.00
15969;DHT22;8085;53.472;9.794;2023-02-15T12:46:59;10.30;1.00
15969;DHT22;8085;53.472;9.794;2023-02-15T12:49:28;9.60;1.00
15969;DHT22;8085;53.472;9.794;2023-02-15T12:51:57;9.70;12.90
15969;DHT22;8085;53.472;9.794;2023-02-15T12:54:34;9.80;14.10
15969;DHT22;8085;53.472;9.794;2023-02-15T12:57:14;10.20;1.00
15969;DHT22;8085;53.472;9.794;2023-02-15T12:59:49;10.50;1.00
15969;DHT22;8085;53.472;9.794;2023-02-15T13:02:21;10.80;1.00
15969;DHT22;8085;53.472;9.794;2023-02-15T13:04:50;11.10;1.00
15969;DHT22;8085;53.472;9.794;2023-02-15T13:07:17;11.30;1.00
15969;DHT22;8085;53.472;9.794;2023-02-15T13:09:46;11.30;1.00
15969;DHT22;8085;53.472;9.794;2023-02-15T13:12:20;10.70;1.00
15969;DHT22;8085;53.472;9.794;2023-02-15T13:14:49;10.70;1.00
15969;DHT22;8085;53.472;9.794;2023-02-15T13:17:19;10.00;1.00
15969;DHT22;8085;53.472;9.794;2023-02-15T13:19:51;10.20;1.00
15969;DHT22;8085;53.472;9.794;2023-02-15T13:22:22;10.60;1.00
15969;DHT22;8085;53.472;9.794;2023-02-15T13:24:55;10.80;1.00
15969;DHT22;8085;53.472;9.794;2023-02-15T13:27:30;10.10;1.00
15969;DHT22;8085;53.472;9.794;2023-02-15T13:30:03;10.30;1.00
15969;DHT22;8085;53.472;9.794;2023-02-15T13:32:34;10.40;1.00
15969;DHT22;8085;53.472;9.794;2023-02-15T13:35:05;10.50;1.00
15969;DHT22;8085;53.472;9.794;2023-02-15T13:37:50;10.60;1.00
15969;DHT22;8085;53.472;9.794;2023-02-15T13:40:22;10.70;1.00
15969;DHT22;8085;53.472;9.794;2023-02-15T13:42:54;10.80;1.00
15969;DHT22;8085;53.472;9.794;2023-02-15T13:45:33;10.70;1.00
15969;DHT22;8085;53.472;9.794;2023-02-15T13:48:13;10.40;1.00
15969;DHT22;8085;53.472;9.794;2023-02-15T13:50:55;10.30;1.00
15969;DHT22;8085;53.472;9.794;2023-02-15T13:53:33;9.90;1.00
15969;DHT22;8085;53.472;9.794;2023-02-15T13:56:06;10.00;1.00
15969;DHT22;8085;53.472;9.794;2023-02-15T14:01:40;10.60;1.00
15969;DHT22;8085;53.472;9.794;2023-02-15T14:07:33;11.00;1.00
15969;DHT22;8085;53.472;9.794;2023-02-15T14:10:18;11.20;1.00
15969;DHT22;8085;53.472;9.794;2023-02-15T14:13:04;11.20;1.00
15969;DHT22;8085;53.472;9.794;2023-02-15T14:15:39;11.30;1.00
15969;DHT22;8085;53.472;9.794;2023-02-15T14:18:18;11.40;1.00
15969;DHT22;8085;53.472;9.794;2023-02-15T14:20:55;11.30;1.00
15969;DHT22;8085;53.472;9.794;2023-02-15T14:23:34;11.50;1.00
15969;DHT22;8085;53.472;9.794;2023-02-15T14:26:09;11.00;1.00
15969;DHT22;8085;53.472;9.794;2023-02-15T14:28:41;10.60;1.00
15969;DHT22;8085;53.472;9.794;2023-02-15T14:31:12;10.60;1.00
15969;DHT22;8085;53.472;9.794;2023-02-15T14:33:41;10.50;1.00
15969;DHT22;8085;53.472;9.794;2023-02-15T14:36:13;10.40;1.00
15969;DHT22;8085;53.472;9.794;2023-02-15T14:38:54;10.40;1.00
15969;DHT22;8085;53.472;9.794;2023-02-15T14:41:28;10.30;1.00
15969;DHT22;8085;53.472;9.794;2023-02-15T14:44:04;10.20;1.00
15969;DHT22;8085;53.472;9.794;2023-02-15T14:46:38;10.30;1.00
15969;DHT22;8085;53.472;9.794;2023-02-15T14:49:11;10.20;1.00
15969;DHT22;8085;53.472;9.794;2023-02-15T14:51:59;10.10;1.00
15969;DHT22;8085;53.472;9.794;2023-02-15T14:54:59;10.10;1.00
15969;DHT22;8085;53.472;9.794;2023-02-15T14:57:27;10.20;1.00
15969;DHT22;8085;53.472;9.794;2023-02-15T14:59:57;10.20;1.00
15969;DHT22;8085;53.472;9.794;2023-02-15T15:02:27;10.30;1.00
15969;DHT22;8085;53.472;9.794;2023-02-15T15:05:07;10.40;1.00
15969;DHT22;8085;53.472;9.794;2023-02-15T15:07:40;10.30;1.00
15969;DHT22;8085;53.472;9.794;2023-02-15T15:10:39;10.10;1.00
15969;DHT22;8085;53.472;9.794;2023-02-15T15:16:35;10.00;1.00
15969;DHT22;8085;53.472;9.794;2023-02-15T15:22:33;9.90;1.00
15969;DHT22;8085;53.472;9.794;2023-02-15T15:25:01;9.70;9.30
15969;DHT22;8085;53.472;9.794;2023-02-15T15:27:46;9.50;11.90
15969;DHT22;8085;53.472;9.794;2023-02-15T15:37:06;8.70;56.50
15969;DHT22;8085;53.472;9.794;2023-02-15T15:39:57;8.40;65.70
15969;DHT22;8085;53.472;9.794;2023-02-15T15:42:32;8.20;75.80
15969;DHT22;8085;53.472;9.794;2023-02-15T15:48:27;8.00;86.70
15969;DHT22;8085;53.472;9.794;2023-02-15T15:50:58;7.90;91.40
15969;DHT22;8085;53.472;9.794;2023-02-15T15:53:27;7.80;92.60
15969;DHT22;8085;53.472;9.794;2023-02-15T15:55:59;7.80;93.70
15969;DHT22;8085;53.472;9.794;2023-02-15T15:58:26;7.70;94.90
15969;DHT22;8085;53.472;9.794;2023-02-15T16:00:59;7.70;96.10
15969;DHT22;8085;53.472;9.794;2023-02-15T16:03:30;7.70;96.90
15969;DHT22;8085;53.472;9.794;2023-02-15T16:05:57;7.60;97.40
15969;DHT22;8085;53.472;9.794;2023-02-15T16:08:33;7.60;98.40
15969;DHT22;8085;53.472;9.794;2023-02-15T16:11:10;7.50;99.40
15969;DHT22;8085;53.472;9.794;2023-02-15T16:13:39;7.40;99.90
15969;DHT22;8085;53.472;9.794;2023-02-15T16:16:06;7.40;99.90
15969;DHT22;8085;53.472;9.794;2023-02-15T16:18:37;7.40;99.90
15969;DHT22;8085;53.472;9.794;2023-02-15T16:21:17;7.30;99.90
15969;DHT22;8085;53.472;9.794;2023-02-15T16:24:04;7.30;99.90
15969;DHT22;8085;53.472;9.794;2023-02-15T16:26:48;7.20;99.90
15969;DHT22;8085;53.472;9.794;2023-02-15T16:29:19;7.10;99.90
15969;DHT22;8085;53.472;9.794;2023-02-15T16:31:58;7.10;99.90
15969;DHT22;8085;53.472;9.794;2023-02-15T16:34:26;7.00;99.90
15969;DHT22;8085;53.472;9.794;2023-02-15T16:37:12;6.90;99.90
15969;DHT22;8085;53.472;9.794;2023-02-15T16:39:41;6.80;99.90
15969;DHT22;8085;53.472;9.794;2023-02-15T16:42:09;6.70;99.90
15969;DHT22;8085;53.472;9.794;2023-02-15T16:44:37;6.70;99.90
15969;DHT22;8085;53.472;9.794;2023-02-15T16:47:04;6.60;99.90
15969;DHT22;8085;53.472;9.794;2023-02-15T16:49:34;6.50;99.90
15969;DHT22;8085;53.472;9.794;2023-02-15T16:52:02;6.50;99.90
15969;DHT22;8085;53.472;9.794;2023-02-15T16:54:31;6.40;99.90
15969;DHT22;8085;53.472;9.794;2023-02-15T16:56:59;6.30;99.90
15969;DHT22;8085;53.472;9.794;2023-02-15T16:59:32;6.30;99.90
15969;DHT22;8085;53.472;9.794;2023-02-15T17:02:04;6.20;99.90
15969;DHT22;8085;53.472;9.794;2023-02-15T17:04:33;6.10;99.90
15969;DHT22;8085;53.472;9.794;2023-02-15T17:07:05;6.10;99.90